createdAt,value
2018-08-04T00:01:15.670Z,21.80
2018-08-04T00:03:44.410Z,21.78
2018-08-04T00:06:14.833Z,21.77
2018-08-04T00:08:44.512Z,21.77
2018-08-04T00:11:14.404Z,21.77
2018-08-04T00:13:44.488Z,21.75
2018-08-04T00:16:14.288Z,21.72
2018-08-04T00:18:44.591Z,21.70
2018-08-04T00:21:14.734Z,21.68
2018-08-04T00:23:43.688Z,21.66
2018-08-04T00:26:12.940Z,21.63
2018-08-04T00:28:41.746Z,21.59
2018-08-04T00:31:10.816Z,21.52
2018-08-04T00:33:39.526Z,21.49
2018-08-04T00:36:08.346Z,21.46
2018-08-04T00:38:37.045Z,21.42
2018-08-04T00:41:05.899Z,21.42
2018-08-04T00:43:34.847Z,21.39
2018-08-04T00:46:04.133Z,21.37
2018-08-04T00:48:32.919Z,21.35
2018-08-04T00:51:01.937Z,21.34
2018-08-04T00:53:30.751Z,21.34
2018-08-04T00:55:59.611Z,21.34
2018-08-04T00:58:28.892Z,21.32
2018-08-04T01:00:57.867Z,21.31
2018-08-04T01:03:27.319Z,21.29
2018-08-04T01:05:56.145Z,21.27
2018-08-04T01:08:24.941Z,21.26
2018-08-04T01:10:53.746Z,21.24
2018-08-04T01:13:22.664Z,21.25
2018-08-04T01:15:51.894Z,21.24
2018-08-04T01:18:21.002Z,21.23
2018-08-04T01:20:49.791Z,21.17
2018-08-04T01:23:18.915Z,21.09
2018-08-04T01:25:48.514Z,21.01
2018-08-04T01:28:17.242Z,20.97
2018-08-04T01:30:46.355Z,20.87
2018-08-04T01:33:15.327Z,20.80
2018-08-04T01:35:44.311Z,20.65
2018-08-04T01:38:13.130Z,20.57
2018-08-04T01:40:42.090Z,20.55
2018-08-04T01:43:10.814Z,20.52
2018-08-04T01:45:39.563Z,20.53
2018-08-04T01:48:08.606Z,20.54
2018-08-04T01:50:37.606Z,20.55
2018-08-04T01:53:06.699Z,20.46
2018-08-04T01:55:35.891Z,20.42
2018-08-04T01:58:04.701Z,20.40
2018-08-04T02:00:33.482Z,20.38
2018-08-04T02:03:02.593Z,20.38
2018-08-04T02:05:31.334Z,20.28
2018-08-04T02:08:00.652Z,20.28
2018-08-04T02:10:29.689Z,20.28
2018-08-04T02:12:58.386Z,20.26
2018-08-04T02:15:27.142Z,20.27
2018-08-04T02:17:56.202Z,20.25
2018-08-04T02:20:24.933Z,20.24
2018-08-04T02:22:53.914Z,20.24
2018-08-04T02:25:22.655Z,20.27
2018-08-04T02:27:51.630Z,20.30
2018-08-04T02:30:21.101Z,20.33
2018-08-04T02:32:49.833Z,20.35
2018-08-04T02:35:18.639Z,20.35
2018-08-04T02:37:47.389Z,20.32
2018-08-04T02:40:16.603Z,20.29
2018-08-04T02:42:45.323Z,20.24
2018-08-04T02:45:14.047Z,20.21
2018-08-04T02:47:42.815Z,20.19
2018-08-04T02:50:11.794Z,20.19
2018-08-04T02:52:40.547Z,20.18
2018-08-04T02:55:09.597Z,20.18
2018-08-04T02:57:38.623Z,20.14
2018-08-04T03:00:07.606Z,20.12
2018-08-04T03:02:36.414Z,20.08
2018-08-04T03:05:11.921Z,20.05
2018-08-04T03:07:40.691Z,20.01
2018-08-04T03:10:10.089Z,20.01
2018-08-04T03:12:38.781Z,20.03
2018-08-04T03:15:08.151Z,20.06
2018-08-04T03:17:37.187Z,20.07
2018-08-04T03:20:07.166Z,20.09
2018-08-04T03:22:36.485Z,20.05
2018-08-04T03:25:05.621Z,19.96
2018-08-04T03:27:34.493Z,19.87
2018-08-04T03:30:03.325Z,19.85
2018-08-04T03:32:32.031Z,19.86
2018-08-04T03:35:00.845Z,19.87
2018-08-04T03:37:30.304Z,19.92
2018-08-04T03:39:59.338Z,19.92
2018-08-04T03:42:28.383Z,19.93
2018-08-04T03:44:57.705Z,19.94
2018-08-04T03:47:26.461Z,19.95
2018-08-04T03:49:55.601Z,19.96
2018-08-04T03:52:24.401Z,19.92
2018-08-04T03:54:53.284Z,19.89
2018-08-04T03:57:22.014Z,19.85
2018-08-04T03:59:50.808Z,19.79
2018-08-04T04:02:19.603Z,19.76
2018-08-04T04:04:49.143Z,19.76
2018-08-04T04:07:18.042Z,19.73
2018-08-04T04:09:46.907Z,19.72
2018-08-04T04:12:16.041Z,19.72
2018-08-04T04:14:44.810Z,19.71
2018-08-04T04:17:13.668Z,19.69
2018-08-04T04:19:42.705Z,19.70
2018-08-04T04:22:11.441Z,19.70
2018-08-04T04:24:40.258Z,19.70
2018-08-04T04:27:09.503Z,19.70
2018-08-04T04:29:38.199Z,19.68
2018-08-04T04:32:08.040Z,19.70
2018-08-04T04:34:36.807Z,19.71
2018-08-04T04:37:06.125Z,19.70
2018-08-04T04:39:35.729Z,19.70
2018-08-04T04:42:04.758Z,19.62
2018-08-04T04:44:33.516Z,19.53
2018-08-04T04:47:02.233Z,19.51
2018-08-04T04:49:31.016Z,19.50
2018-08-04T04:52:00.078Z,19.48
2018-08-04T04:54:28.867Z,19.45
2018-08-04T04:56:57.703Z,19.41
2018-08-04T04:59:26.438Z,19.40
2018-08-04T05:01:55.188Z,19.39
2018-08-04T05:04:24.220Z,19.40
2018-08-04T05:06:53.323Z,19.40
2018-08-04T05:09:22.374Z,19.40
2018-08-04T05:11:51.089Z,19.40
2018-08-04T05:14:20.254Z,19.44
2018-08-04T05:16:48.983Z,19.40
2018-08-04T05:19:18.073Z,19.44
2018-08-04T05:21:47.738Z,19.40
2018-08-04T05:24:17.242Z,19.45
2018-08-04T05:26:45.990Z,19.46
2018-08-04T05:29:14.879Z,19.48
2018-08-04T05:31:44.049Z,19.52
2018-08-04T05:34:13.047Z,19.55
2018-08-04T05:36:41.787Z,19.64
2018-08-04T05:39:12.719Z,19.66
2018-08-04T05:41:42.062Z,19.76
2018-08-04T05:44:10.769Z,19.81
2018-08-04T05:46:40.179Z,19.90
2018-08-04T05:49:09.186Z,19.96
2018-08-04T05:51:38.283Z,20.04
2018-08-04T05:54:07.046Z,20.15
2018-08-04T05:56:35.773Z,20.22
2018-08-04T05:59:04.835Z,20.36
2018-08-04T06:01:33.568Z,20.45
2018-08-04T06:04:02.267Z,20.54
2018-08-04T06:06:31.096Z,20.68
2018-08-04T06:08:59.785Z,20.84
2018-08-04T06:11:29.461Z,21.01
2018-08-04T06:13:58.173Z,21.21
2018-08-04T06:16:27.629Z,21.36
2018-08-04T06:18:56.456Z,21.49
2018-08-04T06:21:25.273Z,21.64
2018-08-04T06:23:54.314Z,21.75
2018-08-04T06:26:23.148Z,21.90
2018-08-04T06:28:52.090Z,22.00
2018-08-04T06:31:20.865Z,22.12
2018-08-04T06:33:49.656Z,22.24
2018-08-04T06:36:18.673Z,22.35
2018-08-04T06:38:48.710Z,22.46
2018-08-04T06:41:17.556Z,22.63
2018-08-04T06:43:46.386Z,22.78
2018-08-04T06:46:15.339Z,22.94
2018-08-04T06:48:44.426Z,23.11
2018-08-04T06:51:13.250Z,23.30
2018-08-04T06:53:42.495Z,23.44
2018-08-04T06:56:11.862Z,23.55
2018-08-04T06:58:41.282Z,23.71
2018-08-04T07:01:10.350Z,23.84
2018-08-04T07:03:39.083Z,23.96
2018-08-04T07:06:08.166Z,24.06
2018-08-04T07:08:37.055Z,24.16
2018-08-04T07:11:06.461Z,24.30
2018-08-04T07:13:35.583Z,24.45
2018-08-04T07:16:04.313Z,24.57
2018-08-04T07:18:33.342Z,24.69
2018-08-04T07:21:02.128Z,24.77
2018-08-04T07:23:31.199Z,24.86
2018-08-04T07:26:00.421Z,25.03
2018-08-04T07:28:29.156Z,25.15
2018-08-04T07:30:57.877Z,25.30
2018-08-04T07:33:27.704Z,25.49
2018-08-04T07:35:56.474Z,25.61
2018-08-04T07:38:25.713Z,25.65
2018-08-04T07:40:54.835Z,25.76
2018-08-04T07:43:23.569Z,25.94
2018-08-04T07:45:52.271Z,26.05
2018-08-04T07:48:20.991Z,26.14
2018-08-04T07:50:50.086Z,26.18
2018-08-04T07:53:19.134Z,26.38
2018-08-04T07:55:47.844Z,26.52
2018-08-04T07:58:16.566Z,26.60
2018-08-04T08:00:45.744Z,26.73
2018-08-04T08:03:14.506Z,26.84
2018-08-04T08:05:43.565Z,26.90
2018-08-04T08:08:12.553Z,27.06
2018-08-04T08:10:41.697Z,27.06
2018-08-04T08:13:10.806Z,27.09
2018-08-04T08:15:39.897Z,27.14
2018-08-04T08:18:08.829Z,27.11
2018-08-04T08:20:37.640Z,27.19
2018-08-04T08:23:06.885Z,27.32
2018-08-04T08:25:36.451Z,27.35
2018-08-04T08:28:05.563Z,27.51
2018-08-04T08:30:34.373Z,27.63
2018-08-04T08:33:03.428Z,27.74
2018-08-04T08:35:35.395Z,27.86
2018-08-04T08:38:04.526Z,27.99
2018-08-04T08:40:33.594Z,28.16
2018-08-04T08:43:02.272Z,28.33
2018-08-04T08:45:31.356Z,28.55
2018-08-04T08:48:00.395Z,28.62
2018-08-04T08:50:29.427Z,28.66
2018-08-04T08:52:58.172Z,28.76
2018-08-04T08:55:26.937Z,28.86
2018-08-04T08:57:55.995Z,28.85
2018-08-04T09:00:24.738Z,28.87
2018-08-04T09:02:53.489Z,28.86
2018-08-04T09:05:22.685Z,28.84
2018-08-04T09:07:53.659Z,29.00
2018-08-04T09:10:22.817Z,29.13
2018-08-04T09:12:51.589Z,29.23
2018-08-04T09:15:20.715Z,29.33
2018-08-04T09:17:49.751Z,29.45
2018-08-04T09:20:18.786Z,29.49
2018-08-04T09:22:47.560Z,29.63
2018-08-04T09:25:16.287Z,29.66
2018-08-04T09:27:45.417Z,29.78
2018-08-04T09:30:14.898Z,29.89
2018-08-04T09:32:45.040Z,30.08
2018-08-04T09:35:14.969Z,30.22
2018-08-04T09:37:44.079Z,30.42
2018-08-04T09:40:14.499Z,30.59
2018-08-04T09:42:44.178Z,30.66
2018-08-04T09:45:14.896Z,30.81
2018-08-04T09:47:43.738Z,30.97
2018-08-04T09:50:14.025Z,30.93
2018-08-04T09:52:43.170Z,31.09
2018-08-04T09:55:12.788Z,31.14
2018-08-04T09:57:42.286Z,31.01
2018-08-04T10:00:17.938Z,31.18
2018-08-04T10:02:47.497Z,31.24
2018-08-04T10:05:16.566Z,31.46
2018-08-04T10:07:45.368Z,31.69
2018-08-04T10:10:14.530Z,31.71
2018-08-04T10:12:43.788Z,31.85
2018-08-04T10:15:12.814Z,31.93
2018-08-04T10:17:45.179Z,32.03
2018-08-04T10:20:14.240Z,32.04
2018-08-04T10:22:43.432Z,32.14
2018-08-04T10:25:12.390Z,32.17
2018-08-04T10:27:41.376Z,32.06
2018-08-04T10:30:11.568Z,32.03
2018-08-04T10:32:40.756Z,32.16
2018-08-04T10:35:09.927Z,32.36
2018-08-04T10:37:39.337Z,32.54
2018-08-04T10:40:08.468Z,32.53
2018-08-04T10:42:37.200Z,32.70
2018-08-04T10:45:07.167Z,32.77
2018-08-04T10:47:36.260Z,32.92
2018-08-04T10:50:05.434Z,33.09
2018-08-04T10:52:34.179Z,33.06
2018-08-04T10:55:03.367Z,33.21
2018-08-04T10:57:32.148Z,33.31
2018-08-04T11:00:01.183Z,33.49
2018-08-04T11:02:30.501Z,33.60
2018-08-04T11:04:59.295Z,33.60
2018-08-04T11:07:28.441Z,33.49
2018-08-04T11:09:57.274Z,33.39
2018-08-04T11:12:26.055Z,33.37
2018-08-04T11:14:55.355Z,33.55
2018-08-04T11:17:24.392Z,33.71
2018-08-04T11:19:53.280Z,33.81
2018-08-04T11:22:22.536Z,33.71
2018-08-04T11:24:51.435Z,33.81
2018-08-04T11:27:20.260Z,33.97
2018-08-04T11:29:49.383Z,34.08
2018-08-04T11:32:18.111Z,34.17
2018-08-04T11:34:46.808Z,34.13
2018-08-04T11:37:15.551Z,34.18
2018-08-04T11:39:44.518Z,33.77
2018-08-04T11:42:13.442Z,33.73
2018-08-04T11:44:42.379Z,33.80
2018-08-04T11:47:11.663Z,33.85
2018-08-04T11:49:40.678Z,33.92
2018-08-04T11:52:09.527Z,33.79
2018-08-04T11:54:38.245Z,33.86
2018-08-04T11:57:07.502Z,33.99
2018-08-04T11:59:42.568Z,33.87
2018-08-04T12:02:11.584Z,33.83
2018-08-04T12:04:40.909Z,33.92
2018-08-04T12:07:09.990Z,33.93
2018-08-04T12:09:38.762Z,33.69
2018-08-04T12:12:07.845Z,33.66
2018-08-04T12:14:36.783Z,33.62
2018-08-04T12:17:05.723Z,33.44
2018-08-04T12:19:34.490Z,33.38
2018-08-04T12:22:03.169Z,33.24
2018-08-04T12:24:32.154Z,33.19
2018-08-04T12:27:00.875Z,33.25
2018-08-04T12:29:29.984Z,33.30
2018-08-04T12:31:59.338Z,33.16
2018-08-04T12:34:28.122Z,32.91
2018-08-04T12:36:57.144Z,32.88
2018-08-04T12:39:25.994Z,33.08
2018-08-04T12:41:55.298Z,33.12
2018-08-04T12:44:24.051Z,33.23
2018-08-04T12:46:53.099Z,33.26
2018-08-04T12:49:22.080Z,33.34
2018-08-04T12:51:50.853Z,33.50
2018-08-04T12:54:19.626Z,33.50
2018-08-04T12:56:48.406Z,33.66
2018-08-04T12:59:17.125Z,33.79
2018-08-04T13:01:45.866Z,34.00
2018-08-04T13:04:14.863Z,33.91
2018-08-04T13:06:43.876Z,33.64
2018-08-04T13:09:12.874Z,33.35
2018-08-04T13:11:41.889Z,32.95
2018-08-04T13:14:10.622Z,32.88
2018-08-04T13:16:39.400Z,32.74
2018-08-04T13:19:08.146Z,32.46
2018-08-04T13:21:37.095Z,32.20
2018-08-04T13:24:05.830Z,32.31
2018-08-04T13:26:34.666Z,32.26
2018-08-04T13:29:03.726Z,32.39
2018-08-04T13:31:33.065Z,32.27
2018-08-04T13:34:01.817Z,32.32
2018-08-04T13:36:30.556Z,32.48
2018-08-04T13:38:59.891Z,32.56
2018-08-04T13:41:28.608Z,32.48
2018-08-04T13:43:57.628Z,32.41
2018-08-04T13:46:26.355Z,32.45
2018-08-04T13:48:55.321Z,32.33
2018-08-04T13:51:24.033Z,32.28
2018-08-04T13:53:53.306Z,32.11
2018-08-04T13:56:22.326Z,32.13
2018-08-04T13:58:51.571Z,32.06
2018-08-04T14:01:20.798Z,31.93
2018-08-04T14:03:49.489Z,32.01
2018-08-04T14:06:18.510Z,32.22
2018-08-04T14:08:47.505Z,32.43
2018-08-04T14:11:16.290Z,32.65
2018-08-04T14:13:44.989Z,32.68
2018-08-04T14:16:13.974Z,32.65
2018-08-04T14:18:43.008Z,32.60
2018-08-04T14:21:11.711Z,32.57
2018-08-04T14:23:40.440Z,32.32
2018-08-04T14:26:09.237Z,32.23
2018-08-04T14:28:37.977Z,32.23
2018-08-04T14:31:07.138Z,32.13
2018-08-04T14:33:35.935Z,32.12
2018-08-04T14:36:04.784Z,31.93
2018-08-04T14:38:33.900Z,31.93
2018-08-04T14:41:03.127Z,31.79
2018-08-04T14:43:31.890Z,31.77
2018-08-04T14:46:00.891Z,31.75
2018-08-04T14:48:30.227Z,31.77
2018-08-04T14:50:59.265Z,31.65
2018-08-04T14:53:28.358Z,31.21
2018-08-04T14:55:57.094Z,31.14
2018-08-04T14:58:26.358Z,31.16
2018-08-04T15:00:55.701Z,31.06
2018-08-04T15:03:24.631Z,31.09
2018-08-04T15:05:54.008Z,30.99
2018-08-04T15:08:22.987Z,30.87
2018-08-04T15:10:51.743Z,30.70
2018-08-04T15:13:20.503Z,30.55
2018-08-04T15:15:49.899Z,30.56
2018-08-04T15:18:19.001Z,30.59
2018-08-04T15:20:48.008Z,30.60
2018-08-04T15:23:17.428Z,30.68
2018-08-04T15:25:46.391Z,30.52
2018-08-04T15:28:15.458Z,30.40
2018-08-04T15:30:44.497Z,30.43
2018-08-04T15:33:13.320Z,30.31
2018-08-04T15:35:41.988Z,30.12
2018-08-04T15:38:11.320Z,30.01
2018-08-04T15:40:40.017Z,30.02
2018-08-04T15:43:09.101Z,30.11
2018-08-04T15:45:37.827Z,30.00
2018-08-04T15:48:06.582Z,29.96
2018-08-04T15:50:35.362Z,29.93
2018-08-04T15:53:04.143Z,29.86
2018-08-04T15:55:33.193Z,29.81
2018-08-04T15:58:01.903Z,29.78
2018-08-04T16:00:31.229Z,29.62
2018-08-04T16:03:00.007Z,29.40
2018-08-04T16:05:28.948Z,29.21
2018-08-04T16:07:57.749Z,29.08
2018-08-04T16:10:26.727Z,28.88
2018-08-04T16:13:02.176Z,28.67
2018-08-04T16:15:30.885Z,28.70
2018-08-04T16:17:59.652Z,28.78
2018-08-04T16:20:28.475Z,28.87
2018-08-04T16:22:57.804Z,28.95
2018-08-04T16:25:27.102Z,28.83
2018-08-04T16:27:55.809Z,28.57
2018-08-04T16:30:25.172Z,28.53
2018-08-04T16:32:54.315Z,28.39
2018-08-04T16:35:23.070Z,28.41
2018-08-04T16:37:52.129Z,28.34
2018-08-04T16:40:20.857Z,28.30
2018-08-04T16:42:49.855Z,28.16
2018-08-04T16:45:18.935Z,28.08
2018-08-04T16:47:47.683Z,28.06
2018-08-04T16:50:16.438Z,28.05
2018-08-04T16:52:45.241Z,28.18
2018-08-04T16:55:14.169Z,28.12
2018-08-04T16:57:43.208Z,28.01
2018-08-04T17:00:11.974Z,27.98
2018-08-04T17:02:40.713Z,27.98
2018-08-04T17:05:10.474Z,28.00
2018-08-04T17:07:39.613Z,27.99
2018-08-04T17:10:08.367Z,27.96
2018-08-04T17:12:37.361Z,28.04
2018-08-04T17:15:07.337Z,27.99
2018-08-04T17:17:36.099Z,27.79
2018-08-04T17:20:05.215Z,27.62
2018-08-04T17:22:34.230Z,27.17
2018-08-04T17:25:03.342Z,27.15
2018-08-04T17:27:32.597Z,27.08
2018-08-04T17:30:02.082Z,27.08
2018-08-04T17:32:31.167Z,26.86
2018-08-04T17:34:59.895Z,26.86
2018-08-04T17:37:28.734Z,26.72
2018-08-04T17:39:57.628Z,26.64
2018-08-04T17:42:26.367Z,26.58
2018-08-04T17:44:55.088Z,26.61
2018-08-04T17:47:24.382Z,26.54
2018-08-04T17:49:53.427Z,26.35
2018-08-04T17:52:22.187Z,26.28
2018-08-04T17:54:51.597Z,26.20
2018-08-04T17:57:20.589Z,26.07
2018-08-04T17:59:49.380Z,26.01
2018-08-04T18:02:18.675Z,26.06
2018-08-04T18:04:47.762Z,26.08
2018-08-04T18:07:16.643Z,26.08
2018-08-04T18:09:45.643Z,25.96
2018-08-04T18:12:14.370Z,25.95
2018-08-04T18:14:43.319Z,25.91
2018-08-04T18:17:12.193Z,25.73
2018-08-04T18:19:40.920Z,25.72
2018-08-04T18:22:09.928Z,25.60
2018-08-04T18:24:38.718Z,25.52
2018-08-04T18:27:07.773Z,25.39
2018-08-04T18:29:36.543Z,25.33
2018-08-04T18:32:05.504Z,25.25
2018-08-04T18:34:34.250Z,25.18
2018-08-04T18:37:03.413Z,25.08
2018-08-04T18:39:32.710Z,25.09
2018-08-04T18:42:01.442Z,25.10
2018-08-04T18:44:31.350Z,25.08
2018-08-04T18:47:00.388Z,25.00
2018-08-04T18:49:29.481Z,24.96
2018-08-04T18:51:58.529Z,24.88
2018-08-04T18:54:27.356Z,24.84
2018-08-04T18:56:56.090Z,24.82
2018-08-04T18:59:24.841Z,24.81
2018-08-04T19:01:53.698Z,24.79
2018-08-04T19:04:22.394Z,24.70
2018-08-04T19:06:54.546Z,24.61
2018-08-04T19:09:23.249Z,24.53
2018-08-04T19:11:51.981Z,24.52
2018-08-04T19:14:21.058Z,24.47
2018-08-04T19:16:49.860Z,24.42
2018-08-04T19:19:18.833Z,24.42
2018-08-04T19:21:48.094Z,24.41
2018-08-04T19:24:16.815Z,24.39
2018-08-04T19:26:45.523Z,24.31
2018-08-04T19:29:14.782Z,24.26
2018-08-04T19:31:43.507Z,24.25
2018-08-04T19:34:12.264Z,24.21
2018-08-04T19:36:41.625Z,24.13
2018-08-04T19:39:11.355Z,24.06
2018-08-04T19:41:40.194Z,24.03
2018-08-04T19:44:09.179Z,24.01
2018-08-04T19:46:38.301Z,23.98
2018-08-04T19:49:07.110Z,23.97
2018-08-04T19:51:35.847Z,23.96
2018-08-04T19:54:04.633Z,23.90
2018-08-04T19:56:33.634Z,23.88
2018-08-04T19:59:02.380Z,23.88
2018-08-04T20:01:31.454Z,23.87
2018-08-04T20:04:00.219Z,23.86
2018-08-04T20:06:29.374Z,23.79
2018-08-04T20:08:58.088Z,23.74
2018-08-04T20:11:27.039Z,23.72
2018-08-04T20:13:55.777Z,23.68
2018-08-04T20:16:24.478Z,23.64
2018-08-04T20:18:54.313Z,23.64
2018-08-04T20:21:23.285Z,23.59
2018-08-04T20:23:52.311Z,23.54
2018-08-04T20:26:21.226Z,23.51
2018-08-04T20:28:49.962Z,23.44
2018-08-04T20:31:18.716Z,23.39
2018-08-04T20:33:47.475Z,23.35
2018-08-04T20:36:17.399Z,23.25
2018-08-04T20:38:46.209Z,23.13
2018-08-04T20:41:14.930Z,23.03
2018-08-04T20:43:44.232Z,22.94
2018-08-04T20:46:12.952Z,22.89
2018-08-04T20:48:43.138Z,22.84
2018-08-04T20:51:12.159Z,22.81
2018-08-04T20:53:40.989Z,22.79
2018-08-04T20:56:10.732Z,22.74
2018-08-04T20:58:39.561Z,22.73
2018-08-04T21:01:19.470Z,22.72
2018-08-04T21:03:48.338Z,22.70
2018-08-04T21:06:17.165Z,22.66
2018-08-04T21:08:45.889Z,22.59
2018-08-04T21:11:14.749Z,22.53
2018-08-04T21:13:43.533Z,22.47
2018-08-04T21:16:12.553Z,22.40
2018-08-04T21:18:41.561Z,22.37
2018-08-04T21:21:10.296Z,22.32
2018-08-04T21:23:39.097Z,22.29
2018-08-04T21:26:07.922Z,22.27
2018-08-04T21:28:49.515Z,22.22
2018-08-04T21:31:18.464Z,22.14
2018-08-04T21:33:47.672Z,22.09
2018-08-04T21:36:16.716Z,22.09
2018-08-04T21:38:45.669Z,22.05
2018-08-04T21:41:14.495Z,22.06
2018-08-04T21:43:43.890Z,22.05
2018-08-04T21:46:12.702Z,22.00
2018-08-04T21:48:41.695Z,21.97
2018-08-04T21:51:10.604Z,21.88
2018-08-04T21:53:39.428Z,21.88
2018-08-04T21:56:08.535Z,21.86
2018-08-04T21:58:38.080Z,21.81
2018-08-04T22:01:13.374Z,21.76
2018-08-04T22:03:44.102Z,21.70
2018-08-04T22:06:13.947Z,21.65
2018-08-04T22:08:53.897Z,21.60
2018-08-04T22:11:22.670Z,21.57
2018-08-04T22:13:51.380Z,21.53
2018-08-04T22:16:20.317Z,21.48
2018-08-04T22:18:49.085Z,21.39
2018-08-04T22:21:17.826Z,21.34
2018-08-04T22:23:47.594Z,21.23
2018-08-04T22:26:18.353Z,21.14
2018-08-04T22:28:47.411Z,21.12
2018-08-04T22:31:16.521Z,21.05
2018-08-04T22:33:45.205Z,21.02
2018-08-04T22:36:14.382Z,21.01
2018-08-04T22:38:43.519Z,20.97
2018-08-04T22:41:13.151Z,20.97
2018-08-04T22:43:42.778Z,20.91
2018-08-04T22:46:16.601Z,20.91
2018-08-04T22:51:19.207Z,20.85
2018-08-04T22:53:48.381Z,20.79
2018-08-04T22:56:17.472Z,20.71
2018-08-04T22:58:46.329Z,20.63
2018-08-04T23:01:15.839Z,20.61
2018-08-04T23:06:14.555Z,20.49
2018-08-04T23:08:43.753Z,20.46
2018-08-04T23:11:13.322Z,20.43
2018-08-04T23:13:42.650Z,20.42
2018-08-04T23:16:11.908Z,20.42
2018-08-04T23:18:41.888Z,20.41
2018-08-04T23:21:11.254Z,20.42
2018-08-04T23:23:40.156Z,20.44
2018-08-04T23:26:09.486Z,20.43
2018-08-04T23:28:38.335Z,20.41
2018-08-04T23:31:07.535Z,20.36
2018-08-04T23:33:36.305Z,20.31
2018-08-04T23:36:05.774Z,20.28
2018-08-04T23:38:35.321Z,20.30
2018-08-04T23:41:04.262Z,20.29
2018-08-04T23:43:33.298Z,20.24
2018-08-04T23:46:03.056Z,20.24
2018-08-04T23:48:32.898Z,20.22
2018-08-04T23:51:02.329Z,20.19
2018-08-04T23:53:31.408Z,20.17
2018-08-04T23:56:00.571Z,20.13
2018-08-04T23:58:30.453Z,20.09
